sensor_id;sensor_type;location;lat;lon;timestamp;P1;durP1;ratioP1;P2;durP2;ratioP2
9559;SDS011;4818;50.860;4.648;2024-01-07T00:01:50;11.75;;;6.85;;
9559;SDS011;4818;50.860;4.648;2024-01-07T00:04:18;12.80;;;6.82;;
9559;SDS011;4818;50.860;4.648;2024-01-07T00:06:45;13.15;;;7.85;;
9559;SDS011;4818;50.860;4.648;2024-01-07T00:09:12;13.57;;;7.38;;
9559;SDS011;4818;50.860;4.648;2024-01-07T00:11:38;15.68;;;7.40;;
9559;SDS011;4818;50.860;4.648;2024-01-07T00:14:05;12.20;;;7.22;;
9559;SDS011;4818;50.860;4.648;2024-01-07T00:16:31;14.40;;;7.90;;
9559;SDS011;4818;50.860;4.648;2024-01-07T00:18:57;14.00;;;8.25;;
9559;SDS011;4818;50.860;4.648;2024-01-07T00:21:23;12.63;;;7.53;;
9559;SDS011;4818;50.860;4.648;2024-01-07T00:23:50;15.18;;;8.27;;
9559;SDS011;4818;50.860;4.648;2024-01-07T00:26:16;11.27;;;7.50;;
9559;SDS011;4818;50.860;4.648;2024-01-07T00:28:42;16.70;;;8.07;;
9559;SDS011;4818;50.860;4.648;2024-01-07T00:31:08;13.82;;;8.07;;
9559;SDS011;4818;50.860;4.648;2024-01-07T00:33:34;16.08;;;9.10;;
9559;SDS011;4818;50.860;4.648;2024-01-07T00:36:02;13.73;;;8.68;;
9559;SDS011;4818;50.860;4.648;2024-01-07T00:38:29;17.08;;;8.80;;
9559;SDS011;4818;50.860;4.648;2024-01-07T00:40:55;14.55;;;8.88;;
9559;SDS011;4818;50.860;4.648;2024-01-07T00:43:21;17.55;;;10.00;;
9559;SDS011;4818;50.860;4.648;2024-01-07T00:45:47;15.40;;;8.57;;
9559;SDS011;4818;50.860;4.648;2024-01-07T00:48:14;14.45;;;9.05;;
9559;SDS011;4818;50.860;4.648;2024-01-07T00:50:41;16.45;;;9.00;;
9559;SDS011;4818;50.860;4.648;2024-01-07T00:53:08;17.00;;;9.63;;
9559;SDS011;4818;50.860;4.648;2024-01-07T00:55:34;15.32;;;9.40;;
9559;SDS011;4818;50.860;4.648;2024-01-07T00:58:01;16.83;;;9.73;;
9559;SDS011;4818;50.860;4.648;2024-01-07T01:00:27;16.27;;;8.30;;
9559;SDS011;4818;50.860;4.648;2024-01-07T01:02:54;17.33;;;8.93;;
9559;SDS011;4818;50.860;4.648;2024-01-07T01:05:21;15.05;;;8.60;;
9559;SDS011;4818;50.860;4.648;2024-01-07T01:07:47;14.57;;;7.90;;
9559;SDS011;4818;50.860;4.648;2024-01-07T01:10:13;15.25;;;8.43;;
9559;SDS011;4818;50.860;4.648;2024-01-07T01:12:43;12.80;;;7.93;;
9559;SDS011;4818;50.860;4.648;2024-01-07T01:15:09;12.63;;;7.30;;
9559;SDS011;4818;50.860;4.648;2024-01-07T01:17:35;12.15;;;7.93;;
9559;SDS011;4818;50.860;4.648;2024-01-07T01:20:02;12.57;;;7.03;;
9559;SDS011;4818;50.860;4.648;2024-01-07T01:22:28;14.65;;;7.57;;
9559;SDS011;4818;50.860;4.648;2024-01-07T01:24:54;11.10;;;7.25;;
9559;SDS011;4818;50.860;4.648;2024-01-07T01:27:21;15.40;;;7.78;;
9559;SDS011;4818;50.860;4.648;2024-01-07T01:29:48;14.52;;;8.20;;
9559;SDS011;4818;50.860;4.648;2024-01-07T01:32:14;14.48;;;7.25;;
9559;SDS011;4818;50.860;4.648;2024-01-07T01:34:40;13.98;;;7.72;;
9559;SDS011;4818;50.860;4.648;2024-01-07T01:37:08;14.48;;;7.78;;
9559;SDS011;4818;50.860;4.648;2024-01-07T01:39:34;14.70;;;8.02;;
9559;SDS011;4818;50.860;4.648;2024-01-07T01:42:01;17.17;;;9.05;;
9559;SDS011;4818;50.860;4.648;2024-01-07T01:44:27;12.68;;;7.78;;
9559;SDS011;4818;50.860;4.648;2024-01-07T01:46:54;14.60;;;8.02;;
9559;SDS011;4818;50.860;4.648;2024-01-07T01:49:21;13.80;;;7.13;;
9559;SDS011;4818;50.860;4.648;2024-01-07T01:51:48;10.82;;;6.68;;
9559;SDS011;4818;50.860;4.648;2024-01-07T01:54:15;12.07;;;6.60;;
9559;SDS011;4818;50.860;4.648;2024-01-07T01:56:41;14.15;;;7.38;;
9559;SDS011;4818;50.860;4.648;2024-01-07T01:59:08;14.32;;;7.55;;
9559;SDS011;4818;50.860;4.648;2024-01-07T02:01:34;13.60;;;7.75;;
9559;SDS011;4818;50.860;4.648;2024-01-07T02:04:00;13.93;;;7.25;;
9559;SDS011;4818;50.860;4.648;2024-01-07T02:06:27;15.80;;;8.35;;
9559;SDS011;4818;50.860;4.648;2024-01-07T02:08:53;14.00;;;7.78;;
9559;SDS011;4818;50.860;4.648;2024-01-07T02:11:21;16.75;;;8.02;;
9559;SDS011;4818;50.860;4.648;2024-01-07T02:13:47;13.30;;;8.05;;
9559;SDS011;4818;50.860;4.648;2024-01-07T02:16:14;15.13;;;8.82;;
9559;SDS011;4818;50.860;4.648;2024-01-07T02:18:41;16.63;;;8.75;;
9559;SDS011;4818;50.860;4.648;2024-01-07T02:21:12;16.63;;;8.38;;
9559;SDS011;4818;50.860;4.648;2024-01-07T02:23:39;16.90;;;9.15;;
9559;SDS011;4818;50.860;4.648;2024-01-07T02:26:05;18.73;;;9.63;;
9559;SDS011;4818;50.860;4.648;2024-01-07T02:28:33;19.23;;;10.20;;
9559;SDS011;4818;50.860;4.648;2024-01-07T02:30:59;18.10;;;9.05;;
9559;SDS011;4818;50.860;4.648;2024-01-07T02:33:25;17.98;;;9.65;;
9559;SDS011;4818;50.860;4.648;2024-01-07T02:35:52;22.10;;;10.98;;
9559;SDS011;4818;50.860;4.648;2024-01-07T02:38:18;24.95;;;12.77;;
9559;SDS011;4818;50.860;4.648;2024-01-07T02:40:44;26.58;;;13.85;;
9559;SDS011;4818;50.860;4.648;2024-01-07T02:43:10;23.40;;;12.85;;
9559;SDS011;4818;50.860;4.648;2024-01-07T02:45:36;25.08;;;12.88;;
9559;SDS011;4818;50.860;4.648;2024-01-07T02:48:02;27.50;;;14.13;;
9559;SDS011;4818;50.860;4.648;2024-01-07T02:50:29;30.23;;;14.50;;
9559;SDS011;4818;50.860;4.648;2024-01-07T02:52:55;25.48;;;14.43;;
9559;SDS011;4818;50.860;4.648;2024-01-07T02:55:21;25.42;;;13.88;;
9559;SDS011;4818;50.860;4.648;2024-01-07T02:57:47;25.70;;;13.82;;
9559;SDS011;4818;50.860;4.648;2024-01-07T03:00:13;30.85;;;16.15;;
9559;SDS011;4818;50.860;4.648;2024-01-07T03:02:40;25.45;;;14.32;;
9559;SDS011;4818;50.860;4.648;2024-01-07T03:05:06;27.85;;;13.98;;
9559;SDS011;4818;50.860;4.648;2024-01-07T03:07:32;26.48;;;14.55;;
9559;SDS011;4818;50.860;4.648;2024-01-07T03:09:58;25.98;;;14.70;;
9559;SDS011;4818;50.860;4.648;2024-01-07T03:12:25;29.13;;;15.45;;
9559;SDS011;4818;50.860;4.648;2024-01-07T03:14:51;27.73;;;14.32;;
9559;SDS011;4818;50.860;4.648;2024-01-07T03:17:17;32.13;;;15.18;;
9559;SDS011;4818;50.860;4.648;2024-01-07T03:19:43;29.70;;;14.65;;
9559;SDS011;4818;50.860;4.648;2024-01-07T03:22:09;31.48;;;15.05;;
9559;SDS011;4818;50.860;4.648;2024-01-07T03:24:35;29.45;;;15.93;;
9559;SDS011;4818;50.860;4.648;2024-01-07T03:27:01;27.75;;;14.68;;
9559;SDS011;4818;50.860;4.648;2024-01-07T03:29:28;30.63;;;14.88;;
9559;SDS011;4818;50.860;4.648;2024-01-07T03:31:54;30.63;;;14.65;;
9559;SDS011;4818;50.860;4.648;2024-01-07T03:34:20;29.33;;;14.13;;
9559;SDS011;4818;50.860;4.648;2024-01-07T03:36:46;28.63;;;14.65;;
9559;SDS011;4818;50.860;4.648;2024-01-07T03:39:12;30.27;;;15.13;;
9559;SDS011;4818;50.860;4.648;2024-01-07T03:41:39;33.55;;;15.98;;
9559;SDS011;4818;50.860;4.648;2024-01-07T03:44:05;31.67;;;17.42;;
9559;SDS011;4818;50.860;4.648;2024-01-07T03:46:31;32.45;;;15.77;;
9559;SDS011;4818;50.860;4.648;2024-01-07T03:48:57;33.28;;;16.10;;
9559;SDS011;4818;50.860;4.648;2024-01-07T03:51:23;35.70;;;16.92;;
9559;SDS011;4818;50.860;4.648;2024-01-07T03:53:49;34.85;;;16.02;;
9559;SDS011;4818;50.860;4.648;2024-01-07T03:56:15;28.33;;;15.13;;
9559;SDS011;4818;50.860;4.648;2024-01-07T03:58:42;28.02;;;14.15;;
9559;SDS011;4818;50.860;4.648;2024-01-07T04:01:08;34.53;;;16.13;;
9559;SDS011;4818;50.860;4.648;2024-01-07T04:03:34;36.50;;;16.52;;
9559;SDS011;4818;50.860;4.648;2024-01-07T04:06:00;39.50;;;16.58;;
9559;SDS011;4818;50.860;4.648;2024-01-07T04:08:26;36.30;;;15.70;;
9559;SDS011;4818;50.860;4.648;2024-01-07T04:10:53;32.50;;;16.40;;
9559;SDS011;4818;50.860;4.648;2024-01-07T04:13:19;34.15;;;14.70;;
9559;SDS011;4818;50.860;4.648;2024-01-07T04:15:45;36.35;;;15.90;;
9559;SDS011;4818;50.860;4.648;2024-01-07T04:18:12;33.20;;;16.45;;
9559;SDS011;4818;50.860;4.648;2024-01-07T04:20:38;33.97;;;16.02;;
9559;SDS011;4818;50.860;4.648;2024-01-07T04:23:04;36.13;;;16.77;;
9559;SDS011;4818;50.860;4.648;2024-01-07T04:25:30;33.83;;;16.27;;
9559;SDS011;4818;50.860;4.648;2024-01-07T04:27:56;35.47;;;15.55;;
9559;SDS011;4818;50.860;4.648;2024-01-07T04:30:23;35.35;;;16.02;;
9559;SDS011;4818;50.860;4.648;2024-01-07T04:32:49;32.53;;;14.40;;
9559;SDS011;4818;50.860;4.648;2024-01-07T04:35:15;35.15;;;16.20;;
9559;SDS011;4818;50.860;4.648;2024-01-07T04:37:42;32.88;;;14.55;;
9559;SDS011;4818;50.860;4.648;2024-01-07T04:40:08;34.28;;;14.32;;
9559;SDS011;4818;50.860;4.648;2024-01-07T04:42:34;32.63;;;15.05;;
9559;SDS011;4818;50.860;4.648;2024-01-07T04:45:01;30.98;;;15.50;;
9559;SDS011;4818;50.860;4.648;2024-01-07T04:47:31;34.30;;;16.80;;
9559;SDS011;4818;50.860;4.648;2024-01-07T04:50:00;34.42;;;14.48;;
9559;SDS011;4818;50.860;4.648;2024-01-07T04:52:27;31.40;;;14.63;;
9559;SDS011;4818;50.860;4.648;2024-01-07T04:54:53;24.27;;;13.52;;
9559;SDS011;4818;50.860;4.648;2024-01-07T04:57:20;30.70;;;14.30;;
9559;SDS011;4818;50.860;4.648;2024-01-07T04:59:46;28.92;;;14.63;;
9559;SDS011;4818;50.860;4.648;2024-01-07T05:02:13;27.88;;;14.40;;
9559;SDS011;4818;50.860;4.648;2024-01-07T05:04:39;31.60;;;14.25;;
9559;SDS011;4818;50.860;4.648;2024-01-07T05:07:05;27.33;;;13.88;;
9559;SDS011;4818;50.860;4.648;2024-01-07T05:09:31;28.92;;;14.75;;
9559;SDS011;4818;50.860;4.648;2024-01-07T05:11:58;31.10;;;15.45;;
9559;SDS011;4818;50.860;4.648;2024-01-07T05:14:25;30.58;;;14.80;;
9559;SDS011;4818;50.860;4.648;2024-01-07T05:16:52;27.38;;;14.30;;
9559;SDS011;4818;50.860;4.648;2024-01-07T05:19:19;28.77;;;14.70;;
9559;SDS011;4818;50.860;4.648;2024-01-07T05:21:46;28.08;;;14.68;;
9559;SDS011;4818;50.860;4.648;2024-01-07T05:24:12;32.55;;;14.93;;
9559;SDS011;4818;50.860;4.648;2024-01-07T05:26:39;29.80;;;16.60;;
9559;SDS011;4818;50.860;4.648;2024-01-07T05:29:05;32.53;;;15.73;;
9559;SDS011;4818;50.860;4.648;2024-01-07T05:31:31;32.25;;;16.30;;
9559;SDS011;4818;50.860;4.648;2024-01-07T05:33:58;35.28;;;16.75;;
9559;SDS011;4818;50.860;4.648;2024-01-07T05:36:24;30.55;;;15.57;;
9559;SDS011;4818;50.860;4.648;2024-01-07T05:38:50;36.08;;;17.30;;
9559;SDS011;4818;50.860;4.648;2024-01-07T05:41:16;33.33;;;16.95;;
9559;SDS011;4818;50.860;4.648;2024-01-07T05:43:42;32.90;;;15.98;;
9559;SDS011;4818;50.860;4.648;2024-01-07T05:46:09;34.38;;;17.23;;
9559;SDS011;4818;50.860;4.648;2024-01-07T05:48:43;36.65;;;17.08;;
9559;SDS011;4818;50.860;4.648;2024-01-07T05:51:10;36.22;;;16.85;;
9559;SDS011;4818;50.860;4.648;2024-01-07T05:53:37;34.22;;;16.70;;
9559;SDS011;4818;50.860;4.648;2024-01-07T05:56:03;34.72;;;16.48;;
9559;SDS011;4818;50.860;4.648;2024-01-07T05:58:29;33.72;;;16.27;;
9559;SDS011;4818;50.860;4.648;2024-01-07T06:00:56;31.38;;;15.50;;
9559;SDS011;4818;50.860;4.648;2024-01-07T06:03:22;31.67;;;15.77;;
9559;SDS011;4818;50.860;4.648;2024-01-07T06:05:48;36.70;;;15.30;;
9559;SDS011;4818;50.860;4.648;2024-01-07T06:08:15;35.42;;;16.33;;
9559;SDS011;4818;50.860;4.648;2024-01-07T06:10:41;37.35;;;16.02;;
9559;SDS011;4818;50.860;4.648;2024-01-07T06:13:07;36.47;;;16.85;;
9559;SDS011;4818;50.860;4.648;2024-01-07T06:15:33;34.97;;;15.30;;
9559;SDS011;4818;50.860;4.648;2024-01-07T06:17:59;37.95;;;15.88;;
9559;SDS011;4818;50.860;4.648;2024-01-07T06:20:26;35.95;;;16.60;;
9559;SDS011;4818;50.860;4.648;2024-01-07T06:22:53;38.63;;;17.05;;
9559;SDS011;4818;50.860;4.648;2024-01-07T06:25:21;36.25;;;15.45;;
9559;SDS011;4818;50.860;4.648;2024-01-07T06:27:51;38.78;;;17.35;;
9559;SDS011;4818;50.860;4.648;2024-01-07T06:30:17;38.45;;;16.13;;
9559;SDS011;4818;50.860;4.648;2024-01-07T06:32:44;37.92;;;15.98;;
9559;SDS011;4818;50.860;4.648;2024-01-07T06:35:11;39.85;;;16.88;;
9559;SDS011;4818;50.860;4.648;2024-01-07T06:37:37;41.80;;;18.33;;
9559;SDS011;4818;50.860;4.648;2024-01-07T06:40:03;41.67;;;18.15;;
9559;SDS011;4818;50.860;4.648;2024-01-07T06:42:29;45.10;;;18.98;;
9559;SDS011;4818;50.860;4.648;2024-01-07T06:44:55;42.10;;;19.00;;
9559;SDS011;4818;50.860;4.648;2024-01-07T06:47:22;48.08;;;19.02;;
9559;SDS011;4818;50.860;4.648;2024-01-07T06:49:48;44.22;;;19.02;;
9559;SDS011;4818;50.860;4.648;2024-01-07T06:52:14;46.03;;;18.33;;
9559;SDS011;4818;50.860;4.648;2024-01-07T06:54:40;50.95;;;19.58;;
9559;SDS011;4818;50.860;4.648;2024-01-07T06:57:06;54.47;;;19.25;;
9559;SDS011;4818;50.860;4.648;2024-01-07T06:59:33;42.67;;;18.92;;
9559;SDS011;4818;50.860;4.648;2024-01-07T07:01:59;46.40;;;19.63;;
9559;SDS011;4818;50.860;4.648;2024-01-07T07:04:25;53.45;;;18.67;;
9559;SDS011;4818;50.860;4.648;2024-01-07T07:06:51;54.40;;;20.55;;
9559;SDS011;4818;50.860;4.648;2024-01-07T07:09:17;51.53;;;20.42;;
9559;SDS011;4818;50.860;4.648;2024-01-07T07:11:44;50.22;;;20.95;;
9559;SDS011;4818;50.860;4.648;2024-01-07T07:14:10;50.83;;;19.88;;
9559;SDS011;4818;50.860;4.648;2024-01-07T07:16:36;58.80;;;23.13;;
9559;SDS011;4818;50.860;4.648;2024-01-07T07:19:02;58.15;;;23.52;;
9559;SDS011;4818;50.860;4.648;2024-01-07T07:21:28;60.53;;;21.77;;
9559;SDS011;4818;50.860;4.648;2024-01-07T07:23:55;57.92;;;21.73;;
9559;SDS011;4818;50.860;4.648;2024-01-07T07:26:21;54.15;;;22.80;;
9559;SDS011;4818;50.860;4.648;2024-01-07T07:28:47;53.22;;;22.92;;
9559;SDS011;4818;50.860;4.648;2024-01-07T07:31:13;57.33;;;22.73;;
9559;SDS011;4818;50.860;4.648;2024-01-07T07:33:40;53.63;;;21.83;;
9559;SDS011;4818;50.860;4.648;2024-01-07T07:36:06;49.22;;;20.88;;
9559;SDS011;4818;50.860;4.648;2024-01-07T07:38:32;47.70;;;19.85;;
9559;SDS011;4818;50.860;4.648;2024-01-07T07:40:59;44.03;;;19.40;;
9559;SDS011;4818;50.860;4.648;2024-01-07T07:43:26;46.70;;;18.77;;
9559;SDS011;4818;50.860;4.648;2024-01-07T07:45:52;46.92;;;20.25;;
9559;SDS011;4818;50.860;4.648;2024-01-07T07:48:18;45.72;;;17.95;;
9559;SDS011;4818;50.860;4.648;2024-01-07T07:50:45;45.63;;;18.20;;
9559;SDS011;4818;50.860;4.648;2024-01-07T07:53:11;50.78;;;18.38;;
9559;SDS011;4818;50.860;4.648;2024-01-07T07:55:37;46.63;;;19.95;;
9559;SDS011;4818;50.860;4.648;2024-01-07T07:58:04;43.38;;;17.98;;
9559;SDS011;4818;50.860;4.648;2024-01-07T08:00:30;40.60;;;16.42;;
9559;SDS011;4818;50.860;4.648;2024-01-07T08:02:57;43.72;;;17.00;;
9559;SDS011;4818;50.860;4.648;2024-01-07T08:05:23;43.22;;;18.30;;
9559;SDS011;4818;50.860;4.648;2024-01-07T08:07:49;38.90;;;17.83;;
9559;SDS011;4818;50.860;4.648;2024-01-07T08:10:15;37.33;;;16.90;;
9559;SDS011;4818;50.860;4.648;2024-01-07T08:12:41;38.50;;;16.38;;
9559;SDS011;4818;50.860;4.648;2024-01-07T08:15:08;35.10;;;16.70;;
9559;SDS011;4818;50.860;4.648;2024-01-07T08:17:34;34.83;;;16.52;;
9559;SDS011;4818;50.860;4.648;2024-01-07T08:20:00;35.95;;;16.67;;
9559;SDS011;4818;50.860;4.648;2024-01-07T08:22:27;32.13;;;15.18;;
9559;SDS011;4818;50.860;4.648;2024-01-07T08:24:54;34.67;;;15.93;;
9559;SDS011;4818;50.860;4.648;2024-01-07T08:27:20;32.60;;;15.90;;
9559;SDS011;4818;50.860;4.648;2024-01-07T08:29:46;30.77;;;14.20;;
9559;SDS011;4818;50.860;4.648;2024-01-07T08:32:13;31.15;;;14.93;;
9559;SDS011;4818;50.860;4.648;2024-01-07T08:34:39;31.33;;;15.50;;
9559;SDS011;4818;50.860;4.648;2024-01-07T08:37:06;31.95;;;13.93;;
9559;SDS011;4818;50.860;4.648;2024-01-07T08:39:33;30.17;;;14.68;;
9559;SDS011;4818;50.860;4.648;2024-01-07T08:42:00;33.65;;;14.25;;
9559;SDS011;4818;50.860;4.648;2024-01-07T08:44:26;26.73;;;14.35;;
9559;SDS011;4818;50.860;4.648;2024-01-07T08:46:53;25.00;;;11.95;;
9559;SDS011;4818;50.860;4.648;2024-01-07T08:49:19;26.42;;;12.80;;
9559;SDS011;4818;50.860;4.648;2024-01-07T08:51:45;24.55;;;11.90;;
9559;SDS011;4818;50.860;4.648;2024-01-07T08:54:11;25.08;;;12.07;;
9559;SDS011;4818;50.860;4.648;2024-01-07T08:56:38;25.58;;;13.57;;
9559;SDS011;4818;50.860;4.648;2024-01-07T08:59:05;25.77;;;12.82;;
9559;SDS011;4818;50.860;4.648;2024-01-07T09:01:31;23.23;;;12.40;;
9559;SDS011;4818;50.860;4.648;2024-01-07T09:03:57;27.25;;;12.80;;
9559;SDS011;4818;50.860;4.648;2024-01-07T09:06:23;23.92;;;12.30;;
9559;SDS011;4818;50.860;4.648;2024-01-07T09:08:51;24.75;;;11.35;;
9559;SDS011;4818;50.860;4.648;2024-01-07T09:11:20;23.98;;;11.95;;
9559;SDS011;4818;50.860;4.648;2024-01-07T09:13:47;24.05;;;11.50;;
9559;SDS011;4818;50.860;4.648;2024-01-07T09:16:16;22.45;;;11.85;;
9559;SDS011;4818;50.860;4.648;2024-01-07T09:18:44;23.27;;;12.23;;
9559;SDS011;4818;50.860;4.648;2024-01-07T09:21:10;21.17;;;11.43;;
9559;SDS011;4818;50.860;4.648;2024-01-07T09:23:36;24.98;;;11.90;;
9559;SDS011;4818;50.860;4.648;2024-01-07T09:26:03;24.85;;;13.05;;
9559;SDS011;4818;50.860;4.648;2024-01-07T09:28:29;19.75;;;10.07;;
9559;SDS011;4818;50.860;4.648;2024-01-07T09:30:56;19.05;;;10.43;;
9559;SDS011;4818;50.860;4.648;2024-01-07T09:33:23;21.85;;;10.82;;
9559;SDS011;4818;50.860;4.648;2024-01-07T09:35:49;20.77;;;12.00;;
9559;SDS011;4818;50.860;4.648;2024-01-07T09:38:16;19.38;;;10.93;;
9559;SDS011;4818;50.860;4.648;2024-01-07T09:40:42;18.80;;;10.65;;
9559;SDS011;4818;50.860;4.648;2024-01-07T09:43:08;17.92;;;10.52;;
9559;SDS011;4818;50.860;4.648;2024-01-07T09:45:45;20.65;;;11.18;;
9559;SDS011;4818;50.860;4.648;2024-01-07T09:48:13;21.38;;;11.10;;
9559;SDS011;4818;50.860;4.648;2024-01-07T09:50:40;19.55;;;11.48;;
9559;SDS011;4818;50.860;4.648;2024-01-07T09:53:06;22.73;;;11.38;;
9559;SDS011;4818;50.860;4.648;2024-01-07T09:55:35;21.42;;;12.25;;
9559;SDS011;4818;50.860;4.648;2024-01-07T09:58:04;22.85;;;11.52;;
9559;SDS011;4818;50.860;4.648;2024-01-07T10:00:30;19.83;;;10.82;;
9559;SDS011;4818;50.860;4.648;2024-01-07T10:02:57;20.90;;;11.93;;
9559;SDS011;4818;50.860;4.648;2024-01-07T10:05:23;23.92;;;11.70;;
9559;SDS011;4818;50.860;4.648;2024-01-07T10:07:50;23.45;;;12.32;;
9559;SDS011;4818;50.860;4.648;2024-01-07T10:10:19;25.55;;;11.98;;
9559;SDS011;4818;50.860;4.648;2024-01-07T10:12:46;22.40;;;11.95;;
9559;SDS011;4818;50.860;4.648;2024-01-07T10:15:13;24.77;;;13.38;;
9559;SDS011;4818;50.860;4.648;2024-01-07T10:17:42;24.35;;;13.40;;
9559;SDS011;4818;50.860;4.648;2024-01-07T10:20:08;22.40;;;11.93;;
9559;SDS011;4818;50.860;4.648;2024-01-07T10:22:36;25.58;;;13.38;;
9559;SDS011;4818;50.860;4.648;2024-01-07T10:25:04;25.30;;;12.98;;
9559;SDS011;4818;50.860;4.648;2024-01-07T10:27:33;26.02;;;13.07;;
9559;SDS011;4818;50.860;4.648;2024-01-07T10:30:01;27.05;;;13.60;;
9559;SDS011;4818;50.860;4.648;2024-01-07T10:32:28;26.02;;;13.93;;
9559;SDS011;4818;50.860;4.648;2024-01-07T10:34:57;26.45;;;13.23;;
9559;SDS011;4818;50.860;4.648;2024-01-07T10:37:24;23.48;;;12.52;;
9559;SDS011;4818;50.860;4.648;2024-01-07T10:39:50;25.42;;;12.48;;
9559;SDS011;4818;50.860;4.648;2024-01-07T10:42:17;19.45;;;10.63;;
9559;SDS011;4818;50.860;4.648;2024-01-07T10:44:44;24.95;;;13.27;;
9559;SDS011;4818;50.860;4.648;2024-01-07T10:47:10;26.67;;;12.93;;
9559;SDS011;4818;50.860;4.648;2024-01-07T10:49:44;23.95;;;11.93;;
9559;SDS011;4818;50.860;4.648;2024-01-07T10:52:12;21.98;;;10.85;;
9559;SDS011;4818;50.860;4.648;2024-01-07T10:54:38;27.73;;;12.45;;
9559;SDS011;4818;50.860;4.648;2024-01-07T10:57:21;29.95;;;13.80;;
9559;SDS011;4818;50.860;4.648;2024-01-07T10:59:49;29.10;;;12.90;;
9559;SDS011;4818;50.860;4.648;2024-01-07T11:02:19;28.83;;;13.38;;
9559;SDS011;4818;50.860;4.648;2024-01-07T11:04:48;31.02;;;13.38;;
9559;SDS011;4818;50.860;4.648;2024-01-07T11:07:31;25.88;;;12.63;;
9559;SDS011;4818;50.860;4.648;2024-01-07T11:12:32;24.50;;;13.30;;
9559;SDS011;4818;50.860;4.648;2024-01-07T11:14:59;26.15;;;13.90;;
9559;SDS011;4818;50.860;4.648;2024-01-07T11:20:01;24.95;;;11.85;;
9559;SDS011;4818;50.860;4.648;2024-01-07T11:22:28;26.20;;;13.20;;
9559;SDS011;4818;50.860;4.648;2024-01-07T11:24:57;28.00;;;13.20;;
9559;SDS011;4818;50.860;4.648;2024-01-07T11:27:24;25.85;;;13.20;;
9559;SDS011;4818;50.860;4.648;2024-01-07T11:29:54;26.23;;;13.93;;
9559;SDS011;4818;50.860;4.648;2024-01-07T11:32:22;22.75;;;11.80;;
9559;SDS011;4818;50.860;4.648;2024-01-07T11:34:50;27.73;;;12.73;;
9559;SDS011;4818;50.860;4.648;2024-01-07T11:37:18;28.63;;;12.73;;
9559;SDS011;4818;50.860;4.648;2024-01-07T11:39:45;26.52;;;13.05;;
9559;SDS011;4818;50.860;4.648;2024-01-07T11:42:12;26.20;;;13.50;;
9559;SDS011;4818;50.860;4.648;2024-01-07T11:44:48;28.13;;;13.45;;
9559;SDS011;4818;50.860;4.648;2024-01-07T11:47:15;27.15;;;12.57;;
9559;SDS011;4818;50.860;4.648;2024-01-07T11:49:42;31.75;;;14.70;;
9559;SDS011;4818;50.860;4.648;2024-01-07T11:52:08;27.83;;;13.07;;
9559;SDS011;4818;50.860;4.648;2024-01-07T11:54:38;30.27;;;13.43;;
9559;SDS011;4818;50.860;4.648;2024-01-07T11:57:04;29.13;;;12.48;;
9559;SDS011;4818;50.860;4.648;2024-01-07T11:59:31;33.22;;;13.10;;
9559;SDS011;4818;50.860;4.648;2024-01-07T12:01:59;28.67;;;13.43;;
9559;SDS011;4818;50.860;4.648;2024-01-07T12:04:25;28.65;;;12.52;;
9559;SDS011;4818;50.860;4.648;2024-01-07T12:06:51;30.70;;;13.38;;
9559;SDS011;4818;50.860;4.648;2024-01-07T12:09:18;23.52;;;12.35;;
9559;SDS011;4818;50.860;4.648;2024-01-07T12:11:44;30.75;;;12.65;;
9559;SDS011;4818;50.860;4.648;2024-01-07T12:14:11;27.77;;;12.52;;
9559;SDS011;4818;50.860;4.648;2024-01-07T12:16:37;31.08;;;13.77;;
9559;SDS011;4818;50.860;4.648;2024-01-07T12:19:04;28.70;;;13.10;;
9559;SDS011;4818;50.860;4.648;2024-01-07T12:21:30;28.27;;;13.27;;
9559;SDS011;4818;50.860;4.648;2024-01-07T12:23:57;26.33;;;13.55;;
9559;SDS011;4818;50.860;4.648;2024-01-07T12:26:27;28.63;;;13.73;;
9559;SDS011;4818;50.860;4.648;2024-01-07T12:28:54;23.63;;;12.13;;
9559;SDS011;4818;50.860;4.648;2024-01-07T12:31:21;21.88;;;11.48;;
9559;SDS011;4818;50.860;4.648;2024-01-07T12:33:47;27.02;;;12.32;;
9559;SDS011;4818;50.860;4.648;2024-01-07T12:36:13;23.17;;;12.50;;
9559;SDS011;4818;50.860;4.648;2024-01-07T12:38:40;24.30;;;11.80;;
9559;SDS011;4818;50.860;4.648;2024-01-07T12:41:07;26.58;;;13.13;;
9559;SDS011;4818;50.860;4.648;2024-01-07T12:43:34;26.73;;;11.63;;
9559;SDS011;4818;50.860;4.648;2024-01-07T12:46:00;25.50;;;12.98;;
9559;SDS011;4818;50.860;4.648;2024-01-07T12:48:30;23.50;;;12.82;;
9559;SDS011;4818;50.860;4.648;2024-01-07T12:50:56;23.50;;;11.57;;
9559;SDS011;4818;50.860;4.648;2024-01-07T12:53:23;19.20;;;10.65;;
9559;SDS011;4818;50.860;4.648;2024-01-07T12:55:49;20.13;;;11.35;;
9559;SDS011;4818;50.860;4.648;2024-01-07T12:58:15;23.23;;;10.90;;
9559;SDS011;4818;50.860;4.648;2024-01-07T13:00:42;20.23;;;10.63;;
9559;SDS011;4818;50.860;4.648;2024-01-07T13:03:09;18.90;;;10.30;;
9559;SDS011;4818;50.860;4.648;2024-01-07T13:05:46;20.02;;;11.18;;
9559;SDS011;4818;50.860;4.648;2024-01-07T13:08:15;22.27;;;10.07;;
9559;SDS011;4818;50.860;4.648;2024-01-07T13:10:43;20.73;;;10.13;;
9559;SDS011;4818;50.860;4.648;2024-01-07T13:13:10;20.60;;;10.75;;
9559;SDS011;4818;50.860;4.648;2024-01-07T13:15:38;24.02;;;11.60;;
9559;SDS011;4818;50.860;4.648;2024-01-07T13:18:06;23.15;;;10.98;;
9559;SDS011;4818;50.860;4.648;2024-01-07T13:20:32;23.92;;;9.40;;
9559;SDS011;4818;50.860;4.648;2024-01-07T13:23:00;18.08;;;10.20;;
9559;SDS011;4818;50.860;4.648;2024-01-07T13:25:29;18.00;;;10.02;;
9559;SDS011;4818;50.860;4.648;2024-01-07T13:27:56;20.35;;;10.50;;
9559;SDS011;4818;50.860;4.648;2024-01-07T13:30:23;20.38;;;10.80;;
9559;SDS011;4818;50.860;4.648;2024-01-07T13:32:49;17.48;;;9.65;;
9559;SDS011;4818;50.860;4.648;2024-01-07T13:35:18;15.98;;;9.55;;
9559;SDS011;4818;50.860;4.648;2024-01-07T13:37:45;18.13;;;11.40;;
9559;SDS011;4818;50.860;4.648;2024-01-07T13:40:12;17.95;;;9.45;;
9559;SDS011;4818;50.860;4.648;2024-01-07T13:42:39;18.40;;;9.50;;
9559;SDS011;4818;50.860;4.648;2024-01-07T13:45:06;17.58;;;10.50;;
9559;SDS011;4818;50.860;4.648;2024-01-07T13:47:32;15.38;;;9.57;;
9559;SDS011;4818;50.860;4.648;2024-01-07T13:50:00;18.75;;;11.02;;
9559;SDS011;4818;50.860;4.648;2024-01-07T13:52:28;36.90;;;19.67;;
9559;SDS011;4818;50.860;4.648;2024-01-07T13:54:55;22.35;;;15.18;;
9559;SDS011;4818;50.860;4.648;2024-01-07T13:57:22;18.05;;;11.10;;
9559;SDS011;4818;50.860;4.648;2024-01-07T13:59:48;15.45;;;9.18;;
9559;SDS011;4818;50.860;4.648;2024-01-07T14:02:15;16.80;;;9.70;;
9559;SDS011;4818;50.860;4.648;2024-01-07T14:04:44;15.60;;;9.75;;
9559;SDS011;4818;50.860;4.648;2024-01-07T14:07:11;19.27;;;11.75;;
9559;SDS011;4818;50.860;4.648;2024-01-07T14:09:37;16.95;;;10.40;;
9559;SDS011;4818;50.860;4.648;2024-01-07T14:12:04;16.63;;;9.68;;
9559;SDS011;4818;50.860;4.648;2024-01-07T14:14:30;15.98;;;10.18;;
9559;SDS011;4818;50.860;4.648;2024-01-07T14:16:56;20.60;;;12.13;;
9559;SDS011;4818;50.860;4.648;2024-01-07T14:19:24;21.25;;;9.45;;
9559;SDS011;4818;50.860;4.648;2024-01-07T14:21:50;15.43;;;9.35;;
9559;SDS011;4818;50.860;4.648;2024-01-07T14:24:17;15.82;;;10.43;;
9559;SDS011;4818;50.860;4.648;2024-01-07T14:26:43;15.32;;;9.52;;
9559;SDS011;4818;50.860;4.648;2024-01-07T14:29:10;13.88;;;9.73;;
9559;SDS011;4818;50.860;4.648;2024-01-07T14:31:38;15.05;;;8.82;;
9559;SDS011;4818;50.860;4.648;2024-01-07T14:34:05;14.40;;;9.40;;
9559;SDS011;4818;50.860;4.648;2024-01-07T14:36:31;15.18;;;9.20;;
9559;SDS011;4818;50.860;4.648;2024-01-07T14:38:57;17.42;;;11.15;;
9559;SDS011;4818;50.860;4.648;2024-01-07T14:41:23;16.95;;;10.80;;
9559;SDS011;4818;50.860;4.648;2024-01-07T14:43:50;15.85;;;10.93;;
9559;SDS011;4818;50.860;4.648;2024-01-07T14:46:16;23.13;;;10.95;;
9559;SDS011;4818;50.860;4.648;2024-01-07T14:48:42;21.95;;;12.52;;
9559;SDS011;4818;50.860;4.648;2024-01-07T14:51:09;18.42;;;11.13;;
9559;SDS011;4818;50.860;4.648;2024-01-07T14:53:35;15.98;;;10.05;;